sensor_id;sensor_type;location;lat;lon;timestamp;temperature;humidity
20672;DHT22;10495;50.922;4.760;2022-07-01T00:01:27;15.00;82.80
20672;DHT22;10495;50.922;4.760;2022-07-01T00:03:53;15.00;82.90
20672;DHT22;10495;50.922;4.760;2022-07-01T00:06:19;15.00;82.80
20672;DHT22;10495;50.922;4.760;2022-07-01T00:08:45;15.00;82.50
20672;DHT22;10495;50.922;4.760;2022-07-01T00:11:11;15.00;82.60
20672;DHT22;10495;50.922;4.760;2022-07-01T00:13:37;15.00;82.40
20672;DHT22;10495;50.922;4.760;2022-07-01T00:16:03;15.10;82.50
20672;DHT22;10495;50.922;4.760;2022-07-01T00:18:29;15.00;82.20
20672;DHT22;10495;50.922;4.760;2022-07-01T00:20:55;15.00;82.20
20672;DHT22;10495;50.922;4.760;2022-07-01T00:23:20;15.00;82.40
20672;DHT22;10495;50.922;4.760;2022-07-01T00:25:46;14.90;82.40
20672;DHT22;10495;50.922;4.760;2022-07-01T00:28:12;14.90;82.80
20672;DHT22;10495;50.922;4.760;2022-07-01T00:30:37;14.90;82.80
20672;DHT22;10495;50.922;4.760;2022-07-01T00:33:03;14.90;82.60
20672;DHT22;10495;50.922;4.760;2022-07-01T00:35:29;14.80;82.70
20672;DHT22;10495;50.922;4.760;2022-07-01T00:37:55;14.80;82.80
20672;DHT22;10495;50.922;4.760;2022-07-01T00:40:21;14.90;83.00
20672;DHT22;10495;50.922;4.760;2022-07-01T00:42:47;14.90;82.80
20672;DHT22;10495;50.922;4.760;2022-07-01T00:45:12;14.90;82.80
20672;DHT22;10495;50.922;4.760;2022-07-01T00:47:40;14.90;83.10
20672;DHT22;10495;50.922;4.760;2022-07-01T00:50:09;14.70;83.40
20672;DHT22;10495;50.922;4.760;2022-07-01T00:52:35;14.70;83.40
20672;DHT22;10495;50.922;4.760;2022-07-01T00:55:07;14.80;83.30
20672;DHT22;10495;50.922;4.760;2022-07-01T00:57:34;14.70;83.60
20672;DHT22;10495;50.922;4.760;2022-07-01T01:00:11;14.70;83.60
20672;DHT22;10495;50.922;4.760;2022-07-01T01:02:37;14.60;84.10
20672;DHT22;10495;50.922;4.760;2022-07-01T01:05:04;14.70;84.10
20672;DHT22;10495;50.922;4.760;2022-07-01T01:07:31;14.60;84.10
20672;DHT22;10495;50.922;4.760;2022-07-01T01:09:59;14.80;83.90
20672;DHT22;10495;50.922;4.760;2022-07-01T01:12:25;14.70;83.70
20672;DHT22;10495;50.922;4.760;2022-07-01T01:14:52;14.60;83.90
20672;DHT22;10495;50.922;4.760;2022-07-01T01:17:18;14.70;84.20
20672;DHT22;10495;50.922;4.760;2022-07-01T01:19:44;14.70;84.00
20672;DHT22;10495;50.922;4.760;2022-07-01T01:22:11;14.70;83.80
20672;DHT22;10495;50.922;4.760;2022-07-01T01:24:40;14.70;83.60
20672;DHT22;10495;50.922;4.760;2022-07-01T01:27:06;14.70;83.70
20672;DHT22;10495;50.922;4.760;2022-07-01T01:29:33;14.80;83.40
20672;DHT22;10495;50.922;4.760;2022-07-01T01:32:00;14.70;83.50
20672;DHT22;10495;50.922;4.760;2022-07-01T01:34:26;14.80;83.60
20672;DHT22;10495;50.922;4.760;2022-07-01T01:36:52;14.60;84.00
20672;DHT22;10495;50.922;4.760;2022-07-01T01:39:19;14.60;84.10
20672;DHT22;10495;50.922;4.760;2022-07-01T01:41:45;14.60;84.70
20672;DHT22;10495;50.922;4.760;2022-07-01T01:44:12;14.60;84.50
20672;DHT22;10495;50.922;4.760;2022-07-01T01:46:38;14.60;84.70
20672;DHT22;10495;50.922;4.760;2022-07-01T01:49:05;14.50;85.00
20672;DHT22;10495;50.922;4.760;2022-07-01T01:51:31;14.50;85.00
20672;DHT22;10495;50.922;4.760;2022-07-01T01:53:57;14.50;85.20
20672;DHT22;10495;50.922;4.760;2022-07-01T01:56:23;14.50;85.10
20672;DHT22;10495;50.922;4.760;2022-07-01T01:58:49;14.70;85.00
20672;DHT22;10495;50.922;4.760;2022-07-01T02:01:16;14.70;84.20
20672;DHT22;10495;50.922;4.760;2022-07-01T02:03:43;14.70;84.60
20672;DHT22;10495;50.922;4.760;2022-07-01T02:06:10;14.60;84.90
20672;DHT22;10495;50.922;4.760;2022-07-01T02:08:39;14.70;84.80
20672;DHT22;10495;50.922;4.760;2022-07-01T02:11:06;14.70;84.70
20672;DHT22;10495;50.922;4.760;2022-07-01T02:13:32;14.80;84.00
20672;DHT22;10495;50.922;4.760;2022-07-01T02:15:58;14.80;84.30
20672;DHT22;10495;50.922;4.760;2022-07-01T02:18:24;14.80;84.30
20672;DHT22;10495;50.922;4.760;2022-07-01T02:20:49;14.80;84.30
20672;DHT22;10495;50.922;4.760;2022-07-01T02:23:15;14.80;84.20
20672;DHT22;10495;50.922;4.760;2022-07-01T02:25:41;14.90;84.30
20672;DHT22;10495;50.922;4.760;2022-07-01T02:28:08;14.70;84.60
20672;DHT22;10495;50.922;4.760;2022-07-01T02:30:34;14.80;84.40
20672;DHT22;10495;50.922;4.760;2022-07-01T02:33:04;14.70;84.40
20672;DHT22;10495;50.922;4.760;2022-07-01T02:35:34;14.70;84.60
20672;DHT22;10495;50.922;4.760;2022-07-01T02:38:00;14.60;84.80
20672;DHT22;10495;50.922;4.760;2022-07-01T02:40:26;14.50;85.00
20672;DHT22;10495;50.922;4.760;2022-07-01T02:42:52;14.70;84.80
20672;DHT22;10495;50.922;4.760;2022-07-01T02:45:18;14.70;84.40
20672;DHT22;10495;50.922;4.760;2022-07-01T02:47:43;14.50;84.80
20672;DHT22;10495;50.922;4.760;2022-07-01T02:50:11;14.60;84.90
20672;DHT22;10495;50.922;4.760;2022-07-01T02:52:39;14.70;84.60
20672;DHT22;10495;50.922;4.760;2022-07-01T02:55:06;14.90;84.00
20672;DHT22;10495;50.922;4.760;2022-07-01T02:57:32;14.80;84.00
20672;DHT22;10495;50.922;4.760;2022-07-01T02:59:59;14.90;84.10
20672;DHT22;10495;50.922;4.760;2022-07-01T03:02:24;14.80;83.80
20672;DHT22;10495;50.922;4.760;2022-07-01T03:04:51;14.80;83.90
20672;DHT22;10495;50.922;4.760;2022-07-01T03:07:18;14.70;84.20
20672;DHT22;10495;50.922;4.760;2022-07-01T03:09:44;14.80;84.20
20672;DHT22;10495;50.922;4.760;2022-07-01T03:12:12;14.90;83.80
20672;DHT22;10495;50.922;4.760;2022-07-01T03:15:13;14.90;84.00
20672;DHT22;10495;50.922;4.760;2022-07-01T03:17:43;14.80;84.60
20672;DHT22;10495;50.922;4.760;2022-07-01T03:20:12;14.70;84.90
20672;DHT22;10495;50.922;4.760;2022-07-01T03:22:38;14.70;85.10
20672;DHT22;10495;50.922;4.760;2022-07-01T03:25:05;14.70;85.10
20672;DHT22;10495;50.922;4.760;2022-07-01T03:27:33;14.80;85.30
20672;DHT22;10495;50.922;4.760;2022-07-01T03:29:58;14.80;85.00
20672;DHT22;10495;50.922;4.760;2022-07-01T03:32:24;14.90;84.80
20672;DHT22;10495;50.922;4.760;2022-07-01T03:34:51;14.90;84.50
20672;DHT22;10495;50.922;4.760;2022-07-01T03:37:18;14.80;84.90
20672;DHT22;10495;50.922;4.760;2022-07-01T03:39:44;14.80;85.10
20672;DHT22;10495;50.922;4.760;2022-07-01T03:42:10;14.90;85.10
20672;DHT22;10495;50.922;4.760;2022-07-01T03:44:36;15.10;84.80
20672;DHT22;10495;50.922;4.760;2022-07-01T03:47:03;15.10;84.50
20672;DHT22;10495;50.922;4.760;2022-07-01T03:49:29;14.90;84.90
20672;DHT22;10495;50.922;4.760;2022-07-01T03:51:54;14.90;85.20
20672;DHT22;10495;50.922;4.760;2022-07-01T03:54:20;14.90;85.20
20672;DHT22;10495;50.922;4.760;2022-07-01T03:56:59;15.00;85.00
20672;DHT22;10495;50.922;4.760;2022-07-01T03:59:25;15.00;84.90
20672;DHT22;10495;50.922;4.760;2022-07-01T04:01:52;15.00;84.60
20672;DHT22;10495;50.922;4.760;2022-07-01T04:04:18;15.10;84.40
20672;DHT22;10495;50.922;4.760;2022-07-01T04:06:44;15.00;84.10
20672;DHT22;10495;50.922;4.760;2022-07-01T04:09:11;15.00;84.20
20672;DHT22;10495;50.922;4.760;2022-07-01T04:11:37;15.10;84.10
20672;DHT22;10495;50.922;4.760;2022-07-01T04:14:03;14.90;83.70
20672;DHT22;10495;50.922;4.760;2022-07-01T04:16:30;14.90;84.20
20672;DHT22;10495;50.922;4.760;2022-07-01T04:18:56;14.80;84.40
20672;DHT22;10495;50.922;4.760;2022-07-01T04:21:22;14.90;84.20
20672;DHT22;10495;50.922;4.760;2022-07-01T04:24:06;15.10;84.70
20672;DHT22;10495;50.922;4.760;2022-07-01T04:26:33;15.10;84.00
20672;DHT22;10495;50.922;4.760;2022-07-01T04:28:58;15.20;83.90
20672;DHT22;10495;50.922;4.760;2022-07-01T04:31:24;15.20;83.80
20672;DHT22;10495;50.922;4.760;2022-07-01T04:33:50;15.20;83.60
20672;DHT22;10495;50.922;4.760;2022-07-01T04:36:16;15.30;83.70
20672;DHT22;10495;50.922;4.760;2022-07-01T04:38:42;15.30;83.30
20672;DHT22;10495;50.922;4.760;2022-07-01T04:41:07;15.30;83.40
20672;DHT22;10495;50.922;4.760;2022-07-01T04:43:51;15.30;83.10
20672;DHT22;10495;50.922;4.760;2022-07-01T04:46:17;15.20;83.30
20672;DHT22;10495;50.922;4.760;2022-07-01T04:48:43;15.10;83.30
20672;DHT22;10495;50.922;4.760;2022-07-01T04:51:08;15.10;83.30
20672;DHT22;10495;50.922;4.760;2022-07-01T04:53:34;15.20;83.30
20672;DHT22;10495;50.922;4.760;2022-07-01T04:56:00;15.10;83.00
20672;DHT22;10495;50.922;4.760;2022-07-01T04:58:26;15.10;83.10
20672;DHT22;10495;50.922;4.760;2022-07-01T05:00:52;15.10;82.90
20672;DHT22;10495;50.922;4.760;2022-07-01T05:03:18;15.00;83.00
20672;DHT22;10495;50.922;4.760;2022-07-01T05:05:44;15.10;83.10
20672;DHT22;10495;50.922;4.760;2022-07-01T05:08:09;15.00;83.40
20672;DHT22;10495;50.922;4.760;2022-07-01T05:10:35;15.10;83.40
20672;DHT22;10495;50.922;4.760;2022-07-01T05:13:01;15.10;83.40
20672;DHT22;10495;50.922;4.760;2022-07-01T05:15:26;15.20;83.40
20672;DHT22;10495;50.922;4.760;2022-07-01T05:17:52;15.20;84.10
20672;DHT22;10495;50.922;4.760;2022-07-01T05:20:36;15.50;85.50
20672;DHT22;10495;50.922;4.760;2022-07-01T05:23:20;16.10;85.50
20672;DHT22;10495;50.922;4.760;2022-07-01T05:25:46;16.60;84.90
20672;DHT22;10495;50.922;4.760;2022-07-01T05:28:12;17.20;84.90
20672;DHT22;10495;50.922;4.760;2022-07-01T05:30:37;17.70;82.80
20672;DHT22;10495;50.922;4.760;2022-07-01T05:33:03;18.30;80.70
20672;DHT22;10495;50.922;4.760;2022-07-01T05:35:29;18.70;78.60
20672;DHT22;10495;50.922;4.760;2022-07-01T05:37:55;19.00;78.40
20672;DHT22;10495;50.922;4.760;2022-07-01T05:40:20;19.60;77.30
20672;DHT22;10495;50.922;4.760;2022-07-01T05:42:46;20.00;72.80
20672;DHT22;10495;50.922;4.760;2022-07-01T05:45:11;20.40;72.50
20672;DHT22;10495;50.922;4.760;2022-07-01T05:47:37;20.70;70.80
20672;DHT22;10495;50.922;4.760;2022-07-01T05:50:03;20.90;67.70
20672;DHT22;10495;50.922;4.760;2022-07-01T05:52:28;20.90;65.40
20672;DHT22;10495;50.922;4.760;2022-07-01T05:54:54;20.80;65.20
20672;DHT22;10495;50.922;4.760;2022-07-01T05:57:20;20.60;65.50
20672;DHT22;10495;50.922;4.760;2022-07-01T05:59:46;20.50;65.70
20672;DHT22;10495;50.922;4.760;2022-07-01T06:02:11;20.30;67.20
20672;DHT22;10495;50.922;4.760;2022-07-01T06:04:37;20.30;69.00
20672;DHT22;10495;50.922;4.760;2022-07-01T06:07:03;20.50;70.20
20672;DHT22;10495;50.922;4.760;2022-07-01T06:09:28;20.70;67.10
20672;DHT22;10495;50.922;4.760;2022-07-01T06:11:54;21.00;66.20
20672;DHT22;10495;50.922;4.760;2022-07-01T06:14:19;21.10;63.40
20672;DHT22;10495;50.922;4.760;2022-07-01T06:16:45;21.10;65.00
20672;DHT22;10495;50.922;4.760;2022-07-01T06:19:10;21.20;64.40
20672;DHT22;10495;50.922;4.760;2022-07-01T06:21:36;21.30;66.10
20672;DHT22;10495;50.922;4.760;2022-07-01T06:24:02;21.70;64.30
20672;DHT22;10495;50.922;4.760;2022-07-01T06:26:28;21.90;66.80
20672;DHT22;10495;50.922;4.760;2022-07-01T06:28:53;22.40;64.00
20672;DHT22;10495;50.922;4.760;2022-07-01T06:31:19;22.80;62.30
20672;DHT22;10495;50.922;4.760;2022-07-01T06:33:44;23.00;60.40
20672;DHT22;10495;50.922;4.760;2022-07-01T06:36:10;23.30;60.00
20672;DHT22;10495;50.922;4.760;2022-07-01T06:38:37;23.40;59.50
20672;DHT22;10495;50.922;4.760;2022-07-01T06:41:03;23.50;59.00
20672;DHT22;10495;50.922;4.760;2022-07-01T06:43:47;23.70;60.60
20672;DHT22;10495;50.922;4.760;2022-07-01T06:46:13;24.00;58.80
20672;DHT22;10495;50.922;4.760;2022-07-01T06:48:38;24.40;58.90
20672;DHT22;10495;50.922;4.760;2022-07-01T06:51:04;24.10;58.30
20672;DHT22;10495;50.922;4.760;2022-07-01T06:53:30;24.00;59.00
20672;DHT22;10495;50.922;4.760;2022-07-01T06:55:57;23.90;59.50
20672;DHT22;10495;50.922;4.760;2022-07-01T06:58:22;24.20;58.90
20672;DHT22;10495;50.922;4.760;2022-07-01T07:00:48;24.50;58.30
20672;DHT22;10495;50.922;4.760;2022-07-01T07:03:14;24.90;57.50
20672;DHT22;10495;50.922;4.760;2022-07-01T07:05:39;25.20;56.90
20672;DHT22;10495;50.922;4.760;2022-07-01T07:08:05;25.00;57.30
20672;DHT22;10495;50.922;4.760;2022-07-01T07:10:30;25.10;57.40
20672;DHT22;10495;50.922;4.760;2022-07-01T07:12:56;25.30;56.80
20672;DHT22;10495;50.922;4.760;2022-07-01T07:15:22;25.40;56.60
20672;DHT22;10495;50.922;4.760;2022-07-01T07:17:47;25.40;56.90
20672;DHT22;10495;50.922;4.760;2022-07-01T07:20:13;25.60;56.90
20672;DHT22;10495;50.922;4.760;2022-07-01T07:22:39;25.80;55.70
20672;DHT22;10495;50.922;4.760;2022-07-01T07:25:05;26.00;56.90
20672;DHT22;10495;50.922;4.760;2022-07-01T07:27:30;26.50;56.60
20672;DHT22;10495;50.922;4.760;2022-07-01T07:29:56;26.50;56.20
20672;DHT22;10495;50.922;4.760;2022-07-01T07:32:21;26.90;56.40
20672;DHT22;10495;50.922;4.760;2022-07-01T07:34:47;26.80;54.90
20672;DHT22;10495;50.922;4.760;2022-07-01T07:37:13;26.60;55.50
20672;DHT22;10495;50.922;4.760;2022-07-01T07:39:38;26.70;54.90
20672;DHT22;10495;50.922;4.760;2022-07-01T07:42:04;26.70;53.70
20672;DHT22;10495;50.922;4.760;2022-07-01T07:44:31;26.20;53.10
20672;DHT22;10495;50.922;4.760;2022-07-01T07:46:56;25.90;55.10
20672;DHT22;10495;50.922;4.760;2022-07-01T07:49:23;26.20;54.20
20672;DHT22;10495;50.922;4.760;2022-07-01T07:51:49;25.90;53.30
20672;DHT22;10495;50.922;4.760;2022-07-01T07:54:14;25.50;54.50
20672;DHT22;10495;50.922;4.760;2022-07-01T07:56:40;25.40;54.30
20672;DHT22;10495;50.922;4.760;2022-07-01T07:59:06;25.70;55.20
20672;DHT22;10495;50.922;4.760;2022-07-01T08:01:31;26.00;54.20
20672;DHT22;10495;50.922;4.760;2022-07-01T08:03:57;26.10;54.20
20672;DHT22;10495;50.922;4.760;2022-07-01T08:06:23;26.30;53.60
20672;DHT22;10495;50.922;4.760;2022-07-01T08:08:48;26.40;52.90
20672;DHT22;10495;50.922;4.760;2022-07-01T08:11:14;26.10;55.10
20672;DHT22;10495;50.922;4.760;2022-07-01T08:13:40;26.10;54.00
20672;DHT22;10495;50.922;4.760;2022-07-01T08:16:06;26.40;53.30
20672;DHT22;10495;50.922;4.760;2022-07-01T08:18:32;26.50;53.20
20672;DHT22;10495;50.922;4.760;2022-07-01T08:20:57;26.70;54.00
20672;DHT22;10495;50.922;4.760;2022-07-01T08:23:23;26.70;52.30
20672;DHT22;10495;50.922;4.760;2022-07-01T08:25:50;26.50;52.80
20672;DHT22;10495;50.922;4.760;2022-07-01T08:28:16;26.70;52.70
20672;DHT22;10495;50.922;4.760;2022-07-01T08:30:42;26.70;52.60
20672;DHT22;10495;50.922;4.760;2022-07-01T08:33:08;26.60;53.00
20672;DHT22;10495;50.922;4.760;2022-07-01T08:35:34;26.40;52.80
20672;DHT22;10495;50.922;4.760;2022-07-01T08:38:00;26.10;52.00
20672;DHT22;10495;50.922;4.760;2022-07-01T08:40:26;25.90;51.90
20672;DHT22;10495;50.922;4.760;2022-07-01T08:43:00;25.60;51.60
20672;DHT22;10495;50.922;4.760;2022-07-01T08:45:27;25.40;53.00
20672;DHT22;10495;50.922;4.760;2022-07-01T08:47:55;25.50;52.50
20672;DHT22;10495;50.922;4.760;2022-07-01T08:50:27;25.20;52.30
20672;DHT22;10495;50.922;4.760;2022-07-01T08:52:52;24.80;53.30
20672;DHT22;10495;50.922;4.760;2022-07-01T08:55:22;25.20;52.70
20672;DHT22;10495;50.922;4.760;2022-07-01T08:57:48;25.70;52.90
20672;DHT22;10495;50.922;4.760;2022-07-01T09:00:15;25.70;51.40
20672;DHT22;10495;50.922;4.760;2022-07-01T09:03:01;25.70;54.40
20672;DHT22;10495;50.922;4.760;2022-07-01T09:05:29;25.70;52.50
20672;DHT22;10495;50.922;4.760;2022-07-01T09:10:24;25.60;51.80
20672;DHT22;10495;50.922;4.760;2022-07-01T09:12:50;25.40;51.40
20672;DHT22;10495;50.922;4.760;2022-07-01T09:15:27;25.30;52.50
20672;DHT22;10495;50.922;4.760;2022-07-01T09:18:13;25.20;51.70
20672;DHT22;10495;50.922;4.760;2022-07-01T09:20:44;25.20;54.00
20672;DHT22;10495;50.922;4.760;2022-07-01T09:23:19;25.40;52.60
20672;DHT22;10495;50.922;4.760;2022-07-01T09:25:50;25.90;53.60
20672;DHT22;10495;50.922;4.760;2022-07-01T09:28:22;26.60;52.50
20672;DHT22;10495;50.922;4.760;2022-07-01T09:30:50;26.50;51.20
20672;DHT22;10495;50.922;4.760;2022-07-01T09:33:18;26.00;51.10
20672;DHT22;10495;50.922;4.760;2022-07-01T09:35:45;26.00;52.50
20672;DHT22;10495;50.922;4.760;2022-07-01T09:38:13;26.10;51.00
20672;DHT22;10495;50.922;4.760;2022-07-01T09:43:24;25.60;50.80
20672;DHT22;10495;50.922;4.760;2022-07-01T09:46:04;25.30;50.90
20672;DHT22;10495;50.922;4.760;2022-07-01T09:51:07;24.60;51.90
20672;DHT22;10495;50.922;4.760;2022-07-01T09:53:34;24.40;52.00
20672;DHT22;10495;50.922;4.760;2022-07-01T09:56:00;24.00;52.60
20672;DHT22;10495;50.922;4.760;2022-07-01T09:58:26;23.70;52.50
20672;DHT22;10495;50.922;4.760;2022-07-01T10:00:52;23.30;52.10
20672;DHT22;10495;50.922;4.760;2022-07-01T10:03:19;23.20;52.80
20672;DHT22;10495;50.922;4.760;2022-07-01T10:05:54;23.40;53.60
20672;DHT22;10495;50.922;4.760;2022-07-01T10:08:46;23.50;53.40
20672;DHT22;10495;50.922;4.760;2022-07-01T10:14:03;23.40;52.80
20672;DHT22;10495;50.922;4.760;2022-07-01T10:16:29;23.10;53.00
20672;DHT22;10495;50.922;4.760;2022-07-01T10:18:56;23.00;53.70
20672;DHT22;10495;50.922;4.760;2022-07-01T10:21:29;22.90;53.60
20672;DHT22;10495;50.922;4.760;2022-07-01T10:24:12;22.80;53.80
20672;DHT22;10495;50.922;4.760;2022-07-01T10:26:38;22.70;54.00
20672;DHT22;10495;50.922;4.760;2022-07-01T10:29:04;22.40;54.00
20672;DHT22;10495;50.922;4.760;2022-07-01T10:31:37;22.30;54.10
20672;DHT22;10495;50.922;4.760;2022-07-01T10:34:04;22.40;54.70
20672;DHT22;10495;50.922;4.760;2022-07-01T10:36:34;22.70;56.90
20672;DHT22;10495;50.922;4.760;2022-07-01T10:41:41;23.40;55.20
20672;DHT22;10495;50.922;4.760;2022-07-01T10:44:10;23.70;54.10
20672;DHT22;10495;50.922;4.760;2022-07-01T10:46:50;24.00;52.80
20672;DHT22;10495;50.922;4.760;2022-07-01T10:49:51;24.20;52.90
20672;DHT22;10495;50.922;4.760;2022-07-01T10:52:18;24.40;52.00
20672;DHT22;10495;50.922;4.760;2022-07-01T11:02:16;24.50;51.70
20672;DHT22;10495;50.922;4.760;2022-07-01T11:04:42;24.30;51.90
20672;DHT22;10495;50.922;4.760;2022-07-01T11:07:09;24.00;52.00
20672;DHT22;10495;50.922;4.760;2022-07-01T11:09:34;23.90;51.90
20672;DHT22;10495;50.922;4.760;2022-07-01T11:12:01;23.60;52.20
20672;DHT22;10495;50.922;4.760;2022-07-01T11:14:27;23.40;51.90
20672;DHT22;10495;50.922;4.760;2022-07-01T11:16:54;23.30;52.40
20672;DHT22;10495;50.922;4.760;2022-07-01T11:19:22;23.30;52.30
20672;DHT22;10495;50.922;4.760;2022-07-01T11:21:53;23.20;52.70
20672;DHT22;10495;50.922;4.760;2022-07-01T11:24:22;23.20;53.20
20672;DHT22;10495;50.922;4.760;2022-07-01T11:26:49;23.30;53.60
20672;DHT22;10495;50.922;4.760;2022-07-01T11:29:24;23.50;54.10
20672;DHT22;10495;50.922;4.760;2022-07-01T11:31:50;23.70;53.30
20672;DHT22;10495;50.922;4.760;2022-07-01T11:34:17;23.80;52.70
20672;DHT22;10495;50.922;4.760;2022-07-01T11:36:44;23.70;53.00
20672;DHT22;10495;50.922;4.760;2022-07-01T11:39:30;23.80;53.50
20672;DHT22;10495;50.922;4.760;2022-07-01T11:42:06;23.80;53.80
20672;DHT22;10495;50.922;4.760;2022-07-01T11:44:38;24.20;52.50
20672;DHT22;10495;50.922;4.760;2022-07-01T11:47:05;24.10;53.40
20672;DHT22;10495;50.922;4.760;2022-07-01T11:49:32;24.00;52.30
20672;DHT22;10495;50.922;4.760;2022-07-01T11:52:03;23.90;52.80
20672;DHT22;10495;50.922;4.760;2022-07-01T11:54:30;23.80;52.70
20672;DHT22;10495;50.922;4.760;2022-07-01T11:57:17;24.00;52.60
20672;DHT22;10495;50.922;4.760;2022-07-01T11:59:45;24.20;52.70
20672;DHT22;10495;50.922;4.760;2022-07-01T12:02:12;24.00;51.70
20672;DHT22;10495;50.922;4.760;2022-07-01T12:04:39;23.90;52.10
20672;DHT22;10495;50.922;4.760;2022-07-01T12:07:06;23.80;52.20
20672;DHT22;10495;50.922;4.760;2022-07-01T12:09:32;23.90;52.20
20672;DHT22;10495;50.922;4.760;2022-07-01T12:11:58;23.80;52.60
20672;DHT22;10495;50.922;4.760;2022-07-01T12:14:29;23.90;51.50
20672;DHT22;10495;50.922;4.760;2022-07-01T12:16:59;24.00;51.00
20672;DHT22;10495;50.922;4.760;2022-07-01T12:19:28;24.20;50.20
20672;DHT22;10495;50.922;4.760;2022-07-01T12:21:56;24.00;50.80
20672;DHT22;10495;50.922;4.760;2022-07-01T12:24:25;23.80;50.50
20672;DHT22;10495;50.922;4.760;2022-07-01T12:29:29;23.90;51.00
20672;DHT22;10495;50.922;4.760;2022-07-01T12:32:02;23.90;51.00
20672;DHT22;10495;50.922;4.760;2022-07-01T12:37:16;23.80;50.40
20672;DHT22;10495;50.922;4.760;2022-07-01T12:42:18;23.60;51.10
20672;DHT22;10495;50.922;4.760;2022-07-01T12:44:45;23.60;51.40
20672;DHT22;10495;50.922;4.760;2022-07-01T12:47:38;23.70;51.30
20672;DHT22;10495;50.922;4.760;2022-07-01T12:50:15;23.80;51.30
20672;DHT22;10495;50.922;4.760;2022-07-01T12:52:44;24.00;50.80
20672;DHT22;10495;50.922;4.760;2022-07-01T12:55:21;23.90;51.90
20672;DHT22;10495;50.922;4.760;2022-07-01T12:57:51;23.90;50.50
20672;DHT22;10495;50.922;4.760;2022-07-01T13:00:17;23.90;50.90
20672;DHT22;10495;50.922;4.760;2022-07-01T13:02:44;23.90;50.40
20672;DHT22;10495;50.922;4.760;2022-07-01T13:05:10;23.80;50.40
20672;DHT22;10495;50.922;4.760;2022-07-01T13:07:36;23.80;51.40
20672;DHT22;10495;50.922;4.760;2022-07-01T13:10:03;23.80;51.10
20672;DHT22;10495;50.922;4.760;2022-07-01T13:12:29;23.70;51.40
20672;DHT22;10495;50.922;4.760;2022-07-01T13:14:55;23.80;50.70
20672;DHT22;10495;50.922;4.760;2022-07-01T13:17:23;23.80;51.10
20672;DHT22;10495;50.922;4.760;2022-07-01T13:19:49;24.10;49.90
20672;DHT22;10495;50.922;4.760;2022-07-01T13:22:14;24.20;48.80
20672;DHT22;10495;50.922;4.760;2022-07-01T13:24:40;24.30;48.60
20672;DHT22;10495;50.922;4.760;2022-07-01T13:27:06;24.20;49.20
20672;DHT22;10495;50.922;4.760;2022-07-01T13:29:31;24.20;49.10
20672;DHT22;10495;50.922;4.760;2022-07-01T13:31:57;24.20;49.10
20672;DHT22;10495;50.922;4.760;2022-07-01T13:34:22;24.30;48.80
20672;DHT22;10495;50.922;4.760;2022-07-01T13:36:48;24.30;49.20
20672;DHT22;10495;50.922;4.760;2022-07-01T13:39:14;24.50;49.50
20672;DHT22;10495;50.922;4.760;2022-07-01T13:41:40;24.40;49.40
20672;DHT22;10495;50.922;4.760;2022-07-01T13:44:05;24.50;47.90
20672;DHT22;10495;50.922;4.760;2022-07-01T13:46:31;24.30;48.30
20672;DHT22;10495;50.922;4.760;2022-07-01T13:48:57;24.40;47.70
20672;DHT22;10495;50.922;4.760;2022-07-01T13:51:23;24.30;48.30
20672;DHT22;10495;50.922;4.760;2022-07-01T13:53:49;24.40;49.30
20672;DHT22;10495;50.922;4.760;2022-07-01T13:56:14;24.40;48.80
20672;DHT22;10495;50.922;4.760;2022-07-01T13:58:40;24.50;48.00
20672;DHT22;10495;50.922;4.760;2022-07-01T14:01:05;24.50;47.80
20672;DHT22;10495;50.922;4.760;2022-07-01T14:03:31;24.50;47.80
20672;DHT22;10495;50.922;4.760;2022-07-01T14:05:57;24.60;47.70
20672;DHT22;10495;50.922;4.760;2022-07-01T14:08:22;24.50;48.40
20672;DHT22;10495;50.922;4.760;2022-07-01T14:10:49;24.70;49.10
20672;DHT22;10495;50.922;4.760;2022-07-01T14:13:15;24.80;48.60
20672;DHT22;10495;50.922;4.760;2022-07-01T14:15:42;24.90;47.90
20672;DHT22;10495;50.922;4.760;2022-07-01T14:18:07;24.60;47.50
20672;DHT22;10495;50.922;4.760;2022-07-01T14:20:34;24.50;48.10
20672;DHT22;10495;50.922;4.760;2022-07-01T14:22:59;24.60;48.70
20672;DHT22;10495;50.922;4.760;2022-07-01T14:25:25;24.70;48.70
20672;DHT22;10495;50.922;4.760;2022-07-01T14:27:50;24.80;48.40
20672;DHT22;10495;50.922;4.760;2022-07-01T14:30:16;24.80;47.90
20672;DHT22;10495;50.922;4.760;2022-07-01T14:32:42;24.70;47.90
20672;DHT22;10495;50.922;4.760;2022-07-01T14:35:08;24.50;47.70
20672;DHT22;10495;50.922;4.760;2022-07-01T14:37:34;24.50;49.00
20672;DHT22;10495;50.922;4.760;2022-07-01T14:40:03;24.50;48.40
20672;DHT22;10495;50.922;4.760;2022-07-01T14:42:28;24.70;48.30
20672;DHT22;10495;50.922;4.760;2022-07-01T14:44:54;24.50;48.70
20672;DHT22;10495;50.922;4.760;2022-07-01T14:47:20;24.30;48.50
20672;DHT22;10495;50.922;4.760;2022-07-01T14:49:46;24.30;48.50
20672;DHT22;10495;50.922;4.760;2022-07-01T14:52:15;24.50;48.80
20672;DHT22;10495;50.922;4.760;2022-07-01T14:54:43;24.40;48.80
20672;DHT22;10495;50.922;4.760;2022-07-01T14:57:08;24.20;48.40
20672;DHT22;10495;50.922;4.760;2022-07-01T14:59:34;24.30;48.60
20672;DHT22;10495;50.922;4.760;2022-07-01T15:02:01;24.00;48.90
20672;DHT22;10495;50.922;4.760;2022-07-01T15:04:29;23.90;49.80
20672;DHT22;10495;50.922;4.760;2022-07-01T15:06:56;24.00;49.30
20672;DHT22;10495;50.922;4.760;2022-07-01T15:09:21;24.10;49.00
20672;DHT22;10495;50.922;4.760;2022-07-01T15:11:51;24.00;49.00
20672;DHT22;10495;50.922;4.760;2022-07-01T15:14:17;24.10;48.80
20672;DHT22;10495;50.922;4.760;2022-07-01T15:16:43;24.20;49.20
20672;DHT22;10495;50.922;4.760;2022-07-01T15:19:09;24.20;49.60
20672;DHT22;10495;50.922;4.760;2022-07-01T15:21:35;23.90;49.30
20672;DHT22;10495;50.922;4.760;2022-07-01T15:24:01;23.90;49.60
20672;DHT22;10495;50.922;4.760;2022-07-01T15:26:26;23.80;50.60
20672;DHT22;10495;50.922;4.760;2022-07-01T15:28:52;23.40;50.50
20672;DHT22;10495;50.922;4.760;2022-07-01T15:31:18;23.20;51.70
20672;DHT22;10495;50.922;4.760;2022-07-01T15:33:44;23.10;51.70
20672;DHT22;10495;50.922;4.760;2022-07-01T15:36:10;23.20;52.30
20672;DHT22;10495;50.922;4.760;2022-07-01T15:38:37;23.00;51.10
20672;DHT22;10495;50.922;4.760;2022-07-01T15:41:03;23.20;51.90
20672;DHT22;10495;50.922;4.760;2022-07-01T15:43:29;23.10;51.30
20672;DHT22;10495;50.922;4.760;2022-07-01T15:45:58;23.00;50.50
20672;DHT22;10495;50.922;4.760;2022-07-01T15:48:23;23.00;49.80
20672;DHT22;10495;50.922;4.760;2022-07-01T15:50:49;22.70;51.10
20672;DHT22;10495;50.922;4.760;2022-07-01T15:53:18;22.60;51.50
20672;DHT22;10495;50.922;4.760;2022-07-01T15:55:44;22.70;52.20
20672;DHT22;10495;50.922;4.760;2022-07-01T15:58:12;23.00;52.40
20672;DHT22;10495;50.922;4.760;2022-07-01T16:00:44;22.90;51.40